Rosewood, Minnesota
Current Conditions -  °F | °C
As of 3:35 PM on Thursday 18 Dec 2014 (Local Time) from KTVF Reporting Station
Overcast Overcast  
Wind Chill:   Ceiling: 7000
Heat Index: 19°   Visibility: 10mi
Dew Point: 12°   Wind: 10mph
Humidity: 74%   Direction: 150°SSE
Pressure: 30.19"   Gusts: NA
Location:  48.0818°N, 96.1186°W
Report Text: KTVF 182135Z AUTO 15009KT 10SM OVC070 M07/M11 A3019 RMK AO1
Loading
Personal Weather Stations






























Interactive Weather Map New forecast layout! Learn more

10-Day Weather Forecast

Advertisements
Track Severe Weather on mobile